createdAt,value
2023-02-18T00:01:25.990Z,99833.03
2023-02-18T00:03:54.141Z,99828.19
2023-02-18T00:06:31.241Z,99821.88
2023-02-18T00:09:02.532Z,99828.31
2023-02-18T00:11:34.473Z,99819.59
2023-02-18T00:14:04.213Z,99821.22
2023-02-18T00:16:32.179Z,99812.78
2023-02-18T00:19:02.997Z,99805.50
2023-02-18T00:21:31.233Z,99810.22
2023-02-18T00:23:59.260Z,99807.91
2023-02-18T00:26:27.278Z,99809.03
2023-02-18T00:28:54.825Z,99812.09
2023-02-18T00:31:26.081Z,99809.69
2023-02-18T00:33:54.002Z,99805.25
2023-02-18T00:36:22.120Z,99803.75
2023-02-18T00:38:55.098Z,99799.97
2023-02-18T00:41:24.010Z,99796.91
2023-02-18T00:43:51.988Z,99799.88
2023-02-18T00:46:19.699Z,99811.22
2023-02-18T00:48:47.012Z,99801.75
2023-02-18T00:51:14.318Z,99797.44
2023-02-18T00:53:42.396Z,99790.25
2023-02-18T00:56:10.510Z,99782.09
2023-02-18T00:58:39.111Z,99781.41
2023-02-18T01:01:08.238Z,99787.53
2023-02-18T01:03:37.412Z,99782.69
2023-02-18T01:06:06.295Z,99771.03
2023-02-18T01:08:35.406Z,99775.38
2023-02-18T01:11:03.419Z,99769.41
2023-02-18T01:13:31.244Z,99774.31
2023-02-18T01:15:59.439Z,99770.31
2023-02-18T01:18:28.010Z,99763.25
2023-02-18T01:20:55.951Z,99768.25
2023-02-18T01:23:24.283Z,99761.47
2023-02-18T01:25:52.423Z,99772.19
2023-02-18T01:28:21.760Z,99756.25
2023-02-18T01:30:51.292Z,99764.66
2023-02-18T01:33:19.699Z,99752.66
2023-02-18T01:35:47.831Z,99766.22
2023-02-18T01:38:15.854Z,99760.22
2023-02-18T01:40:52.162Z,99742.84
2023-02-18T01:43:21.077Z,99745.91
2023-02-18T01:45:51.056Z,99759.91
2023-02-18T01:48:42.751Z,99750.09
2023-02-18T01:51:10.766Z,99739.06
2023-02-18T01:53:57.419Z,99735.31
2023-02-18T01:56:37.286Z,99744.81
2023-02-18T01:59:09.442Z,99742.56
2023-02-18T02:01:37.461Z,99733.97
2023-02-18T02:04:05.261Z,99736.16
2023-02-18T02:06:33.160Z,99726.38
2023-02-18T02:09:03.860Z,99734.63
2023-02-18T02:12:03.274Z,99719.59
2023-02-18T02:14:31.123Z,99722.63
2023-02-18T02:17:05.257Z,99730.53
2023-02-18T02:19:57.743Z,99727.13
2023-02-18T02:22:37.540Z,99712.09
2023-02-18T02:25:05.458Z,99713.53
2023-02-18T02:27:33.047Z,99725.59
2023-02-18T02:30:12.816Z,99722.94
2023-02-18T02:32:53.547Z,99713.47
2023-02-18T02:35:31.187Z,99730.09
2023-02-18T02:38:46.095Z,99719.53
2023-02-18T02:41:26.096Z,99720.31
2023-02-18T02:44:13.478Z,99720.22
2023-02-18T02:46:45.364Z,99728.16
2023-02-18T02:49:39.117Z,99742.94
2023-02-18T02:52:12.804Z,99743.63
2023-02-18T02:54:40.817Z,99731.50
2023-02-18T02:57:08.262Z,99729.25
2023-02-18T02:59:38.806Z,99739.06
2023-02-18T03:02:51.487Z,99738.41
2023-02-18T03:05:37.210Z,99740.28
2023-02-18T03:08:10.718Z,99736.78
2023-02-18T03:11:18.914Z,99733.78
2023-02-18T03:14:10.129Z,99745.91
2023-02-18T03:16:48.307Z,99732.69
2023-02-18T03:19:23.356Z,99739.06
2023-02-18T03:21:52.825Z,99738.41
2023-02-18T03:24:25.146Z,99734.91
2023-02-18T03:26:56.238Z,99757.94
2023-02-18T03:29:24.504Z,99742.84
2023-02-18T03:31:56.365Z,99742.00
2023-02-18T03:34:28.695Z,99749.56
2023-02-18T03:36:57.833Z,99758.97
2023-02-18T03:39:28.316Z,99756.31
2023-02-18T03:41:56.512Z,99760.06
2023-02-18T03:44:26.321Z,99749.50
2023-02-18T03:46:54.197Z,99758.28
2023-02-18T03:49:21.762Z,99768.59
2023-02-18T03:51:49.516Z,99774.66
2023-02-18T03:54:18.095Z,99772.78
2023-02-18T03:56:46.240Z,99779.19
2023-02-18T03:59:14.212Z,99782.25
2023-02-18T04:01:41.363Z,99773.53
2023-02-18T04:04:08.859Z,99785.94
2023-02-18T04:06:36.851Z,99784.72
2023-02-18T04:09:09.343Z,99778.34
2023-02-18T04:11:39.588Z,99773.91
2023-02-18T04:14:08.174Z,99776.47
2023-02-18T04:16:36.531Z,99774.59
2023-02-18T04:19:04.525Z,99781.84
2023-02-18T04:21:33.854Z,99765.53
2023-02-18T04:24:01.860Z,99783.00
2023-02-18T04:26:30.187Z,99782.53
2023-02-18T04:28:58.257Z,99779.03
2023-02-18T04:31:25.846Z,99791.22
2023-02-18T04:33:53.380Z,99793.28
2023-02-18T04:36:21.538Z,99790.47
2023-02-18T04:38:49.537Z,99786.19
2023-02-18T04:41:17.584Z,99809.63
2023-02-18T04:43:45.543Z,99804.78
2023-02-18T04:46:13.634Z,99799.81
2023-02-18T04:48:41.871Z,99784.66
2023-02-18T04:51:09.829Z,99798.09
2023-02-18T04:53:37.596Z,99802.41
2023-02-18T04:56:05.931Z,99796.72
2023-02-18T04:58:33.737Z,99807.09
2023-02-18T05:01:02.574Z,99814.50
2023-02-18T05:03:30.887Z,99805.94
2023-02-18T05:05:58.758Z,99811.81
2023-02-18T05:08:26.167Z,99805.66
2023-02-18T05:10:53.614Z,99816.03
2023-02-18T05:13:23.222Z,99833.31
2023-02-18T05:15:51.263Z,99829.47
2023-02-18T05:18:18.569Z,99829.38
2023-02-18T05:20:46.896Z,99841.38
2023-02-18T05:23:15.235Z,99842.28
2023-02-18T05:25:42.905Z,99848.47
2023-02-18T05:28:10.469Z,99852.88
2023-02-18T05:30:37.863Z,99869.38
2023-02-18T05:33:05.800Z,99873.53
2023-02-18T05:35:33.235Z,99874.88
2023-02-18T05:38:00.906Z,99884.34
2023-02-18T05:40:28.908Z,99884.47
2023-02-18T05:42:56.633Z,99887.41
2023-02-18T05:45:24.586Z,99891.59
2023-02-18T05:47:52.132Z,99887.00
2023-02-18T05:50:19.598Z,99887.31
2023-02-18T05:52:47.596Z,99898.63
2023-02-18T05:55:15.490Z,99894.34
2023-02-18T05:57:43.597Z,99896.44
2023-02-18T06:00:12.255Z,99901.69
2023-02-18T06:02:39.949Z,99906.75
2023-02-18T06:05:08.023Z,99891.81
2023-02-18T06:07:36.256Z,99907.81
2023-02-18T06:10:04.385Z,99922.28
2023-02-18T06:12:31.414Z,99919.88
2023-02-18T06:14:59.261Z,99921.84
2023-02-18T06:17:26.947Z,99916.91
2023-02-18T06:19:54.524Z,99916.81
2023-02-18T06:22:22.612Z,99922.41
2023-02-18T06:24:50.936Z,99919.34
2023-02-18T06:27:18.942Z,99928.34
2023-02-18T06:29:46.620Z,99927.34
2023-02-18T06:32:14.495Z,99927.84
2023-02-18T06:34:42.211Z,99933.72
2023-02-18T06:37:09.730Z,99928.91
2023-02-18T06:39:38.796Z,99930.47
2023-02-18T06:42:06.460Z,99942.16
2023-02-18T06:44:33.817Z,99939.28
2023-02-18T06:47:01.619Z,99932.72
2023-02-18T06:49:28.834Z,99936.00
2023-02-18T06:51:55.773Z,99938.09
2023-02-18T06:54:23.873Z,99951.09
2023-02-18T06:56:51.618Z,99955.59
2023-02-18T06:59:19.289Z,99950.63
2023-02-18T07:01:47.294Z,99951.97
2023-02-18T07:04:15.079Z,99947.03
2023-02-18T07:06:42.957Z,99950.66
2023-02-18T07:09:10.838Z,99947.44
2023-02-18T07:11:38.744Z,99951.41
2023-02-18T07:14:08.388Z,99949.41
2023-02-18T07:16:36.696Z,99961.72
2023-02-18T07:19:04.647Z,99956.13
2023-02-18T07:21:32.639Z,99944.69
2023-02-18T07:24:00.483Z,99950.97
2023-02-18T07:26:28.014Z,99951.84
2023-02-18T07:28:55.730Z,99947.13
2023-02-18T07:31:23.539Z,99948.00
2023-02-18T07:33:51.565Z,99953.38
2023-02-18T07:36:19.107Z,99950.03
2023-02-18T07:38:47.550Z,99947.97
2023-02-18T07:41:21.323Z,99948.19
2023-02-18T07:43:48.980Z,99953.25
2023-02-18T07:46:17.325Z,99956.50
2023-02-18T07:48:45.329Z,99956.59
2023-02-18T07:51:13.669Z,99954.41
2023-02-18T07:53:41.661Z,99959.03
2023-02-18T07:56:09.928Z,99949.44
2023-02-18T07:58:38.834Z,99953.50
2023-02-18T08:01:08.333Z,99953.69
2023-02-18T08:03:35.989Z,99950.31
2023-02-18T08:06:05.310Z,99951.34
2023-02-18T08:08:35.195Z,99947.13
2023-02-18T08:11:13.337Z,99950.53
2023-02-18T08:13:46.991Z,99953.13
2023-02-18T08:16:15.849Z,99952.78
2023-02-18T08:18:44.518Z,99962.84
2023-02-18T08:21:12.685Z,99949.19
2023-02-18T08:23:41.117Z,99955.03
2023-02-18T08:26:09.283Z,99952.91
2023-02-18T08:28:37.671Z,99953.38
2023-02-18T08:31:05.491Z,99961.56
2023-02-18T08:33:33.692Z,99964.41
2023-02-18T08:36:01.544Z,99961.75
2023-02-18T08:38:29.696Z,99965.50
2023-02-18T08:41:06.246Z,99956.47
2023-02-18T08:43:34.775Z,99972.81
2023-02-18T08:46:03.089Z,99970.00
2023-02-18T08:48:30.979Z,99957.81
2023-02-18T08:50:59.030Z,99958.56
2023-02-18T08:53:26.936Z,99957.91
2023-02-18T08:55:54.798Z,99962.16
2023-02-18T08:58:23.167Z,99967.59
2023-02-18T09:00:51.039Z,99950.53
2023-02-18T09:03:18.533Z,99955.72
2023-02-18T09:05:46.526Z,99958.28
2023-02-18T09:08:14.720Z,99948.03
2023-02-18T09:10:43.222Z,99942.50
2023-02-18T09:13:11.951Z,99940.03
2023-02-18T09:15:39.846Z,99930.31
2023-02-18T09:18:07.723Z,99935.28
2023-02-18T09:20:35.721Z,99933.13
2023-02-18T09:23:04.012Z,99938.06
2023-02-18T09:25:31.523Z,99930.75
2023-02-18T09:27:59.721Z,99940.28
2023-02-18T09:30:27.281Z,99945.94
2023-02-18T09:32:54.805Z,99933.81
2023-02-18T09:35:22.634Z,99940.59
2023-02-18T09:37:50.810Z,99938.72
2023-02-18T09:40:31.028Z,99936.81
2023-02-18T09:42:59.814Z,99938.06
2023-02-18T09:45:28.725Z,99950.50
2023-02-18T09:47:56.826Z,99951.47
2023-02-18T09:50:28.235Z,99956.91
2023-02-18T09:52:57.203Z,99953.25
2023-02-18T09:55:34.204Z,99951.53
2023-02-18T09:58:04.389Z,99956.38
2023-02-18T10:00:41.976Z,99946.88
2023-02-18T10:03:16.218Z,99946.84
2023-02-18T10:06:01.769Z,99936.53
2023-02-18T10:08:38.845Z,99940.50
2023-02-18T10:11:14.227Z,99933.72
2023-02-18T10:13:42.223Z,99932.47
2023-02-18T10:16:10.672Z,99935.66
2023-02-18T10:18:42.845Z,99930.50
2023-02-18T10:21:13.249Z,99936.47
2023-02-18T10:23:43.232Z,99936.19
2023-02-18T10:26:15.760Z,99936.94
2023-02-18T10:28:44.086Z,99926.28
2023-02-18T10:31:16.302Z,99935.16
2023-02-18T10:34:05.470Z,99926.88
2023-02-18T10:36:39.093Z,99926.56
2023-02-18T10:39:09.746Z,99938.16
2023-02-18T10:41:44.862Z,99929.47
2023-02-18T10:44:38.245Z,99937.75
2023-02-18T10:47:20.876Z,99940.28
2023-02-18T10:50:01.074Z,99923.81
2023-02-18T10:52:34.694Z,99925.31
2023-02-18T10:55:09.688Z,99919.16
2023-02-18T10:57:47.817Z,99916.00
2023-02-18T11:00:17.849Z,99910.94
2023-02-18T11:02:46.258Z,99920.41
2023-02-18T11:05:24.520Z,99910.38
2023-02-18T11:07:55.262Z,99907.38
2023-02-18T11:10:30.670Z,99903.03
2023-02-18T11:13:03.689Z,99896.47
2023-02-18T11:15:31.532Z,99895.03
2023-02-18T11:18:15.768Z,99901.84
2023-02-18T11:20:57.898Z,99893.41
2023-02-18T11:23:25.890Z,99894.34
2023-02-18T11:25:57.275Z,99887.53
2023-02-18T11:28:29.119Z,99871.66
2023-02-18T11:31:01.797Z,99867.06
2023-02-18T11:33:39.629Z,99873.00
2023-02-18T11:36:24.773Z,99868.09
2023-02-18T11:38:56.455Z,99860.25
2023-02-18T11:41:32.573Z,99851.00
2023-02-18T11:44:00.912Z,99857.72
2023-02-18T11:46:29.853Z,99847.88
2023-02-18T11:49:12.449Z,99838.59
2023-02-18T11:51:41.294Z,99834.44
2023-02-18T11:54:30.717Z,99826.47
2023-02-18T11:57:04.425Z,99820.59
2023-02-18T11:59:37.540Z,99814.44
2023-02-18T12:02:11.334Z,99802.00
2023-02-18T12:04:52.832Z,99799.22
2023-02-18T12:07:27.142Z,99799.44
2023-02-18T12:10:01.546Z,99797.88
2023-02-18T12:12:31.933Z,99789.78
2023-02-18T12:15:00.367Z,99786.00
2023-02-18T12:17:47.797Z,99783.03
2023-02-18T12:20:21.555Z,99774.19
2023-02-18T12:23:05.947Z,99775.69
2023-02-18T12:25:49.558Z,99773.25
2023-02-18T12:28:57.843Z,99771.97
2023-02-18T12:31:37.582Z,99758.00
2023-02-18T12:34:31.793Z,99751.50
2023-02-18T12:37:19.768Z,99741.88
2023-02-18T12:40:05.938Z,99748.53
2023-02-18T12:42:53.170Z,99743.59
2023-02-18T12:45:26.806Z,99735.84
2023-02-18T12:48:09.481Z,99742.81
2023-02-18T12:50:58.483Z,99735.28
2023-02-18T12:53:36.818Z,99744.47
2023-02-18T12:56:19.165Z,99737.78
2023-02-18T12:58:54.110Z,99726.88
2023-02-18T13:01:41.974Z,99723.81
2023-02-18T13:04:27.815Z,99728.06
2023-02-18T13:07:25.979Z,99718.25
2023-02-18T13:10:19.132Z,99714.38
2023-02-18T13:12:55.189Z,99715.00
2023-02-18T13:15:41.817Z,99720.66
2023-02-18T13:18:13.821Z,99705.78
2023-02-18T13:21:00.818Z,99710.91
2023-02-18T13:23:35.819Z,99696.47
2023-02-18T13:26:06.699Z,99700.75
2023-02-18T13:28:43.199Z,99700.66
2023-02-18T13:31:32.080Z,99689.31
2023-02-18T13:34:05.739Z,99682.44
2023-02-18T13:36:33.212Z,99698.25
2023-02-18T13:39:03.825Z,99675.47
2023-02-18T13:41:40.211Z,99681.97
2023-02-18T13:44:09.825Z,99675.84
2023-02-18T13:46:52.826Z,99666.88
2023-02-18T13:49:25.800Z,99650.75
2023-02-18T13:51:55.839Z,99659.16
2023-02-18T13:54:28.207Z,99650.31
2023-02-18T13:57:04.402Z,99649.88
2023-02-18T13:59:40.221Z,99635.22
2023-02-18T14:02:23.338Z,99635.56
2023-02-18T14:04:53.253Z,99635.47
2023-02-18T14:07:42.022Z,99619.69
2023-02-18T14:10:19.148Z,99621.25
2023-02-18T14:12:59.219Z,99625.88
2023-02-18T14:15:27.035Z,99614.69
2023-02-18T14:18:16.036Z,99604.94
2023-02-18T14:20:51.842Z,99613.53
2023-02-18T14:23:19.479Z,99609.16
2023-02-18T14:26:04.637Z,99624.25
2023-02-18T14:28:35.411Z,99623.94
2023-02-18T14:31:13.153Z,99607.94
2023-02-18T14:33:45.041Z,99618.34
2023-02-18T14:36:16.238Z,99606.53
2023-02-18T14:39:28.419Z,99598.44
2023-02-18T14:42:25.077Z,99594.38
2023-02-18T14:44:56.239Z,99593.31
2023-02-18T14:47:48.851Z,99583.84
2023-02-18T14:50:19.436Z,99580.31
2023-02-18T14:52:50.267Z,99574.59
2023-02-18T14:55:33.430Z,99571.44
2023-02-18T14:58:07.713Z,99560.50
2023-02-18T15:00:40.784Z,99555.19
2023-02-18T15:03:17.860Z,99556.81
2023-02-18T15:05:47.071Z,99554.34
2023-02-18T15:08:19.862Z,99543.56
2023-02-18T15:11:04.078Z,99542.16
2023-02-18T15:13:32.632Z,99542.16
2023-02-18T15:16:07.437Z,99548.03
2023-02-18T15:18:48.703Z,99533.97
2023-02-18T15:21:26.733Z,99540.13
2023-02-18T15:23:54.870Z,99538.28
2023-02-18T15:26:22.872Z,99536.00
2023-02-18T15:29:02.558Z,99531.78
2023-02-18T15:31:32.329Z,99520.00
2023-02-18T15:34:00.564Z,99531.34
2023-02-18T15:36:28.103Z,99531.16
2023-02-18T15:38:57.868Z,99518.78
2023-02-18T15:41:25.202Z,99514.38
2023-02-18T15:44:03.962Z,99503.16
2023-02-18T15:46:32.845Z,99501.44
2023-02-18T15:49:01.871Z,99502.75
2023-02-18T15:51:31.294Z,99497.19
2023-02-18T15:54:01.875Z,99501.09
2023-02-18T15:56:39.680Z,99492.91
2023-02-18T15:59:26.894Z,99505.50
2023-02-18T16:02:02.829Z,99505.19
2023-02-18T16:04:33.985Z,99507.13
2023-02-18T16:07:23.888Z,99504.13
2023-02-18T16:09:58.213Z,99501.50
2023-02-18T16:12:31.755Z,99492.38
2023-02-18T16:14:59.885Z,99508.00
2023-02-18T16:17:29.606Z,99506.34
2023-02-18T16:20:05.701Z,99498.91
2023-02-18T16:22:38.994Z,99503.72
2023-02-18T16:25:18.131Z,99503.41
2023-02-18T16:28:07.493Z,99500.19
2023-02-18T16:30:35.971Z,99495.50
2023-02-18T16:33:03.890Z,99496.00
2023-02-18T16:35:47.426Z,99487.84
2023-02-18T16:38:18.894Z,99480.78
2023-02-18T16:40:46.771Z,99486.22
2023-02-18T16:43:15.719Z,99497.94
2023-02-18T16:45:49.939Z,99481.41
2023-02-18T16:48:21.145Z,99484.84
2023-02-18T16:50:50.767Z,99485.31
2023-02-18T16:53:18.325Z,99492.00
2023-02-18T16:55:46.011Z,99495.44
2023-02-18T16:58:14.010Z,99497.78
2023-02-18T17:00:42.292Z,99491.19
2023-02-18T17:03:11.013Z,99499.31
2023-02-18T17:05:41.897Z,99497.56
2023-02-18T17:08:25.012Z,99498.50
2023-02-18T17:10:54.780Z,99500.88
2023-02-18T17:13:27.921Z,99493.00
2023-02-18T17:15:56.783Z,99491.81
2023-02-18T17:18:24.908Z,99503.19
2023-02-18T17:20:53.919Z,99498.81
2023-02-18T17:23:23.928Z,99498.22
2023-02-18T17:25:52.912Z,99496.22
2023-02-18T17:28:21.343Z,99492.25
2023-02-18T17:30:54.404Z,99482.59
2023-02-18T17:33:22.545Z,99501.06
2023-02-18T17:35:50.301Z,99491.97
2023-02-18T17:38:19.853Z,99486.03
2023-02-18T17:40:50.293Z,99486.03
2023-02-18T17:43:19.722Z,99489.28
2023-02-18T17:45:55.813Z,99488.28
2023-02-18T17:48:23.924Z,99487.50
2023-02-18T17:50:52.734Z,99483.78
2023-02-18T17:53:20.930Z,99482.38
2023-02-18T17:55:49.357Z,99478.34
2023-02-18T17:58:17.825Z,99475.06
2023-02-18T18:00:52.871Z,99479.22
2023-02-18T18:03:20.823Z,99481.88
2023-02-18T18:05:52.372Z,99483.41
2023-02-18T18:08:20.607Z,99489.41
2023-02-18T18:10:51.637Z,99484.91
2023-02-18T18:13:23.935Z,99479.13
2023-02-18T18:15:52.065Z,99477.25
2023-02-18T18:18:19.825Z,99487.78
2023-02-18T18:20:51.067Z,99486.66
2023-02-18T18:23:20.832Z,99484.16
2023-02-18T18:25:51.741Z,99480.56
2023-02-18T18:28:19.835Z,99493.50
2023-02-18T18:30:50.802Z,99487.72
2023-02-18T18:33:21.218Z,99490.25
2023-02-18T18:35:51.945Z,99484.56
2023-02-18T18:38:21.080Z,99485.72
2023-02-18T18:40:49.770Z,99478.94
2023-02-18T18:43:21.600Z,99479.09
2023-02-18T18:45:50.559Z,99474.94
2023-02-18T18:48:18.855Z,99488.09
2023-02-18T18:50:47.756Z,99482.16
2023-02-18T18:53:28.414Z,99472.38
2023-02-18T18:55:58.761Z,99484.84
2023-02-18T18:58:26.760Z,99490.88
2023-02-18T19:00:58.878Z,99490.06
2023-02-18T19:03:27.761Z,99489.59
2023-02-18T19:05:56.398Z,99495.03
2023-02-18T19:08:25.342Z,99498.13
2023-02-18T19:10:55.636Z,99496.13
2023-02-18T19:13:30.891Z,99506.41
2023-02-18T19:16:25.548Z,99495.63
2023-02-18T19:18:54.764Z,99503.63
2023-02-18T19:21:22.765Z,99499.56
2023-02-18T19:23:50.605Z,99510.78
2023-02-18T19:26:18.775Z,99512.13
2023-02-18T19:28:46.891Z,99521.03
2023-02-18T19:31:16.067Z,99525.31
2023-02-18T19:33:47.029Z,99526.59
2023-02-18T19:36:15.628Z,99525.06
2023-02-18T19:38:43.776Z,99530.31
2023-02-18T19:41:14.912Z,99533.41
2023-02-18T19:43:44.685Z,99530.09
2023-02-18T19:46:14.161Z,99533.19
2023-02-18T19:48:42.793Z,99531.53
2023-02-18T19:51:10.981Z,99521.84
2023-02-18T19:53:39.127Z,99518.19
2023-02-18T19:56:07.944Z,99507.81
2023-02-18T19:58:37.132Z,99507.13
2023-02-18T20:01:05.136Z,99514.81
2023-02-18T20:03:34.279Z,99516.31
2023-02-18T20:06:01.912Z,99522.03
2023-02-18T20:08:29.532Z,99517.63
2023-02-18T20:11:00.138Z,99521.44
2023-02-18T20:13:28.293Z,99527.50
2023-02-18T20:15:55.981Z,99526.97
2023-02-18T20:18:23.978Z,99527.13
2023-02-18T20:20:51.875Z,99531.13
2023-02-18T20:23:20.150Z,99530.25
2023-02-18T20:25:48.151Z,99532.72
2023-02-18T20:28:16.191Z,99533.94
2023-02-18T20:30:44.811Z,99531.44
2023-02-18T20:33:12.812Z,99534.72
2023-02-18T20:35:40.932Z,99528.72
2023-02-18T20:38:08.675Z,99533.22
2023-02-18T20:40:36.140Z,99527.59
2023-02-18T20:43:04.086Z,99534.72
2023-02-18T20:45:32.845Z,99528.59
2023-02-18T20:48:00.683Z,99531.13
2023-02-18T20:50:28.163Z,99534.56
2023-02-18T20:52:56.452Z,99542.97
2023-02-18T20:55:24.686Z,99541.31
2023-02-18T20:57:52.825Z,99538.03
2023-02-18T21:00:20.959Z,99544.41
2023-02-18T21:02:48.774Z,99536.84
2023-02-18T21:05:16.955Z,99543.97
2023-02-18T21:07:44.958Z,99540.16
2023-02-18T21:10:12.833Z,99546.81
2023-02-18T21:12:41.006Z,99544.97
2023-02-18T21:15:09.836Z,99546.72
2023-02-18T21:17:37.963Z,99556.34
2023-02-18T21:20:06.573Z,99553.91
2023-02-18T21:22:34.184Z,99554.44
2023-02-18T21:25:02.019Z,99556.47
2023-02-18T21:27:29.705Z,99560.38
2023-02-18T21:29:59.902Z,99555.47
2023-02-18T21:32:27.797Z,99561.19
2023-02-18T21:34:55.872Z,99568.47
2023-02-18T21:37:23.920Z,99556.38
2023-02-18T21:39:52.011Z,99572.38
2023-02-18T21:42:19.974Z,99580.31
2023-02-18T21:44:48.717Z,99576.81
2023-02-18T21:47:16.489Z,99579.13
2023-02-18T21:49:44.181Z,99585.66
2023-02-18T21:52:12.346Z,99583.25
2023-02-18T21:54:42.985Z,99593.38
2023-02-18T21:57:20.084Z,99588.53
2023-02-18T21:59:47.862Z,99588.72
2023-02-18T22:02:23.173Z,99602.34
2023-02-18T22:04:52.226Z,99605.44
2023-02-18T22:07:22.214Z,99593.31
2023-02-18T22:09:54.221Z,99599.28
2023-02-18T22:12:24.216Z,99597.56
2023-02-18T22:14:51.869Z,99595.59
2023-02-18T22:17:21.952Z,99597.72
2023-02-18T22:19:49.751Z,99601.38
2023-02-18T22:22:18.012Z,99609.19
2023-02-18T22:24:45.958Z,99616.56
2023-02-18T22:27:13.895Z,99612.66
2023-02-18T22:29:42.226Z,99603.41
2023-02-18T22:32:09.939Z,99607.75
2023-02-18T22:34:38.016Z,99606.75
2023-02-18T22:37:05.382Z,99615.91
2023-02-18T22:39:33.020Z,99617.22
2023-02-18T22:42:00.536Z,99608.34
2023-02-18T22:44:28.122Z,99604.41
2023-02-18T22:46:58.755Z,99621.78
2023-02-18T22:49:26.235Z,99627.28
2023-02-18T22:51:54.897Z,99619.94
2023-02-18T22:54:22.465Z,99620.16
2023-02-18T22:56:50.245Z,99618.41
2023-02-18T22:59:19.997Z,99617.97
2023-02-18T23:01:49.939Z,99620.25
2023-02-18T23:04:19.316Z,99622.47
2023-02-18T23:06:47.949Z,99620.91
2023-02-18T23:09:19.537Z,99625.72
2023-02-18T23:11:50.798Z,99627.72
2023-02-18T23:14:18.272Z,99632.53
2023-02-18T23:17:05.045Z,99631.00
2023-02-18T23:19:34.257Z,99634.94
2023-02-18T23:22:02.257Z,99639.31
2023-02-18T23:24:33.205Z,99642.38
2023-02-18T23:27:01.262Z,99636.75
2023-02-18T23:29:29.054Z,99646.25
2023-02-18T23:31:56.819Z,99647.47
2023-02-18T23:34:24.044Z,99645.00
2023-02-18T23:36:52.003Z,99647.53
2023-02-18T23:39:21.555Z,99648.34
2023-02-18T23:41:50.269Z,99642.84
2023-02-18T23:44:20.833Z,99632.84
2023-02-18T23:46:48.803Z,99639.38
2023-02-18T23:49:19.064Z,99644.50
2023-02-18T23:51:46.817Z,99638.22
2023-02-18T23:54:14.066Z,99636.56
2023-02-18T23:56:42.018Z,99644.00
2023-02-18T23:59:10.928Z,99642.66
